No particular awareness of the weather is required.    There are no Weather-warnings


Meteo18 Weather Cam more information Meteo18 Weather Cam


Thunder radar more information blitzortung!


Rain radar more information rain snow radar


Visit our other weather sites:

Template documentation
and downloads

And another site



Weather Underground History page Text

Daily Summary for October 26, 2017 Units:  Metric    English   Both
« Previous Day
Next Day »
Daily Weekly Monthly Yearly Custom
  High: Low: Average:
Temperature: 24.1 °C 11.1 °C 15.8 °C
Dew Point: 16.1 °C 10.6 °C 13.2 °C
Humidity: 98 % 56 % 86 %
Wind Speed: 9.7 km/h 0.0 km/h 1.3 km/h
Wind Gust: 11.3 km/h - -
Wind:- - SW
Pressure: 1026.6 hPa 1024.9 hPa -
Precipitation: 0.3 mm    
Historical Graphs
 
 
Tabular Data for October 26, 2017
Time Temperature Dew Point Pressure Wind Wind Speed Wind Gust Humidity Rainfall Rate (Hourly)
00:02 13.1 °C 12.5 °C 1026.0 hPa Calm   3.2 km/h 96 % 0.0 mm
00:12 12.8 °C 12.2 °C 1026.0 hPa Calm   1.6 km/h 96 % 0.0 mm
00:17 12.8 °C 12.2 °C 1026.0 hPa Calm   1.6 km/h 96 % 0.0 mm
00:22 12.9 °C 12.3 °C 1026.0 hPa Calm     96 % 0.0 mm
00:32 12.9 °C 12.3 °C 1026.0 hPa Calm     96 % 0.0 mm
00:37 13.0 °C 12.4 °C 1026.0 hPa Calm     96 % 0.0 mm
00:42 12.8 °C 12.2 °C 1026.0 hPa Calm     96 % 0.0 mm
00:47 12.6 °C 12.0 °C 1026.0 hPa Calm     96 % 0.0 mm
00:52 12.5 °C 11.9 °C 1026.0 hPa Calm     96 % 0.0 mm
00:57 12.4 °C 11.8 °C 1026.0 hPa Calm     96 % 0.0 mm
01:02 12.5 °C 11.9 °C 1026.0 hPa Calm     96 % 0.0 mm
01:12 12.5 °C 11.9 °C 1026.0 hPa Calm     96 % 0.0 mm
01:17 12.5 °C 11.9 °C 1026.0 hPa Calm     96 % 0.0 mm
01:22 12.4 °C 11.8 °C 1026.0 hPa Calm     96 % 0.0 mm
01:32 12.6 °C 12.1 °C 1026.0 hPa Calm     97 % 0.0 mm
01:42 12.8 °C 12.3 °C 1026.0 hPa Calm     97 % 0.0 mm
01:52 12.9 °C 12.4 °C 1026.0 hPa Calm     97 % 0.0 mm
01:57 12.7 °C 12.1 °C 1026.0 hPa Calm     96 % 0.0 mm
02:02 12.4 °C 11.8 °C 1026.0 hPa Calm     96 % 0.0 mm
02:07 12.4 °C 11.9 °C 1026.0 hPa Calm     97 % 0.0 mm
02:12 12.4 °C 11.9 °C 1026.0 hPa Calm     97 % 0.0 mm
02:17 12.5 °C 12.0 °C 1026.0 hPa Calm     97 % 0.0 mm
02:22 12.6 °C 12.1 °C 1026.0 hPa Calm     97 % 0.0 mm
02:32 12.3 °C 11.7 °C 1026.0 hPa North 3.2 km/h   96 % 0.0 mm
02:37 12.5 °C 12.0 °C 1026.0 hPa North 1.6 km/h 3.2 km/h 97 % 0.0 mm
02:42 12.4 °C 11.9 °C 1026.0 hPa NNW 1.6 km/h 3.2 km/h 97 % 0.0 mm
02:52 12.4 °C 11.9 °C 1026.0 hPa NNW 1.6 km/h 3.2 km/h 97 % 0.0 mm
02:57 12.4 °C 11.9 °C 1026.0 hPa NNW 1.6 km/h 3.2 km/h 97 % 0.0 mm
03:02 12.4 °C 11.9 °C 1025.6 hPa NNW 1.6 km/h 3.2 km/h 97 % 0.0 mm
03:07 12.6 °C 12.1 °C 1026.0 hPa Calm   3.2 km/h 97 % 0.0 mm
03:12 12.6 °C 12.1 °C 1026.0 hPa Calm   3.2 km/h 97 % 0.0 mm
03:17 12.6 °C 12.1 °C 1026.0 hPa Calm   3.2 km/h 97 % 0.0 mm
03:22 12.3 °C 11.7 °C 1026.0 hPa Calm   3.2 km/h 96 % 0.0 mm
03:32 12.2 °C 11.7 °C 1026.0 hPa Calm   1.6 km/h 97 % 0.0 mm
03:37 12.3 °C 11.8 °C 1026.0 hPa Calm     97 % 0.0 mm
03:42 12.3 °C 11.8 °C 1026.0 hPa Calm     97 % 0.0 mm
03:47 12.4 °C 11.9 °C 1026.0 hPa Calm     97 % 0.0 mm
03:52 12.1 °C 11.5 °C 1026.0 hPa Calm     96 % 0.0 mm
03:57 12.1 °C 11.6 °C 1025.6 hPa Calm     97 % 0.0 mm
04:02 12.2 °C 11.7 °C 1026.0 hPa Calm     97 % 0.0 mm
04:07 12.4 °C 11.9 °C 1026.0 hPa Calm     97 % 0.0 mm
04:12 12.4 °C 11.9 °C 1026.0 hPa Calm     97 % 0.0 mm
04:17 12.2 °C 11.7 °C 1026.0 hPa NE 1.6 km/h   97 % 0.0 mm
04:22 11.8 °C 11.2 °C 1025.6 hPa NNE 3.2 km/h   96 % 0.0 mm
04:32 12.0 °C 11.5 °C 1025.6 hPa NNE 3.2 km/h 3.2 km/h 97 % 0.0 mm
04:37 12.3 °C 12.0 °C 1025.6 hPa NNE 3.2 km/h 3.2 km/h 98 % 0.0 mm
04:42 12.3 °C 11.8 °C 1025.6 hPa Calm   3.2 km/h 97 % 0.0 mm
04:47 12.3 °C 11.8 °C 1025.6 hPa Calm   3.2 km/h 97 % 0.0 mm
04:52 12.2 °C 11.7 °C 1025.6 hPa Calm   3.2 km/h 97 % 0.0 mm
04:57 11.9 °C 11.4 °C 1025.3 hPa Calm   1.6 km/h 97 % 0.0 mm
05:02 12.1 °C 11.6 °C 1025.3 hPa Calm   1.6 km/h 97 % 0.0 mm
05:07 12.3 °C 11.8 °C 1025.3 hPa Calm     97 % 0.0 mm
05:12 12.1 °C 11.6 °C 1025.6 hPa Calm     97 % 0.0 mm
05:17 12.0 °C 11.5 °C 1025.6 hPa Calm     97 % 0.0 mm
05:22 11.9 °C 11.4 °C 1025.6 hPa Calm     97 % 0.0 mm
05:32 11.9 °C 11.4 °C 1025.6 hPa Calm     97 % 0.0 mm
05:42 11.8 °C 11.3 °C 1025.6 hPa Calm     97 % 0.0 mm
05:52 12.1 °C 11.6 °C 1025.6 hPa Calm     97 % 0.3 mm
05:57 12.2 °C 11.7 °C 1025.6 hPa Calm     97 % 0.3 mm
06:02 12.4 °C 12.1 °C 1025.6 hPa Calm     98 % 0.3 mm
06:12 12.5 °C 12.0 °C 1025.6 hPa Calm     97 % 0.3 mm
06:17 12.3 °C 11.8 °C 1025.6 hPa Calm     97 % 0.3 mm
06:22 12.1 °C 11.6 °C 1025.6 hPa Calm     97 % 0.3 mm
06:32 11.7 °C 11.1 °C 1025.6 hPa WNW 1.6 km/h   96 % 0.3 mm
06:42 12.0 °C 11.5 °C 1025.6 hPa Calm   1.6 km/h 97 % 0.0 mm
06:52 11.9 °C 11.4 °C 1025.6 hPa Calm   1.6 km/h 97 % 0.0 mm
07:02 11.8 °C 11.3 °C 1025.6 hPa Calm     97 % 0.0 mm
07:12 12.1 °C 11.8 °C 1025.6 hPa Calm     98 % 0.0 mm
07:17 12.0 °C 11.5 °C 1025.6 hPa Calm     97 % 0.0 mm
07:22 11.8 °C 11.3 °C 1025.6 hPa Calm     97 % 0.0 mm
07:32 11.4 °C 10.9 °C 1025.6 hPa Calm     97 % 0.0 mm
07:42 11.8 °C 11.5 °C 1025.6 hPa Calm     98 % 0.0 mm
07:52 11.7 °C 11.2 °C 1025.6 hPa Calm     97 % 0.0 mm
08:02 11.6 °C 11.1 °C 1025.6 hPa Calm     97 % 0.0 mm
08:07 11.5 °C 11.0 °C 1025.6 hPa Calm     97 % 0.0 mm
08:12 11.3 °C 10.8 °C 1025.6 hPa Calm     97 % 0.0 mm
08:17 11.2 °C 10.7 °C 1025.6 hPa Calm     97 % 0.0 mm
08:22 11.2 °C 10.7 °C 1025.6 hPa Calm     97 % 0.0 mm
08:32 11.2 °C 10.7 °C 1026.0 hPa Calm     97 % 0.0 mm
08:42 11.2 °C 10.7 °C 1026.0 hPa Calm     97 % 0.0 mm
08:47 11.2 °C 10.7 °C 1026.0 hPa Calm     97 % 0.0 mm
08:52 11.1 °C 10.6 °C 1026.0 hPa Calm     97 % 0.0 mm
09:02 11.1 °C 10.6 °C 1026.3 hPa Calm     97 % 0.0 mm
09:07 11.3 °C 11.0 °C 1026.3 hPa Calm     98 % 0.0 mm
09:12 11.3 °C 10.8 °C 1026.3 hPa Calm     97 % 0.0 mm
09:17 11.2 °C 10.7 °C 1026.3 hPa Calm     97 % 0.0 mm
09:22 11.2 °C 10.7 °C 1026.3 hPa Calm     97 % 0.0 mm
09:32 11.7 °C 11.2 °C 1026.3 hPa Calm     97 % 0.0 mm
09:42 12.4 °C 11.9 °C 1026.3 hPa Calm     97 % 0.0 mm
09:47 12.4 °C 11.9 °C 1026.3 hPa Calm     97 % 0.0 mm
09:52 12.4 °C 11.8 °C 1026.3 hPa Calm     96 % 0.0 mm
10:02 12.6 °C 12.0 °C 1026.3 hPa Calm     96 % 0.0 mm
10:07 12.6 °C 12.0 °C 1026.3 hPa Calm     96 % 0.0 mm
10:12 12.8 °C 12.2 °C 1026.3 hPa Calm     96 % 0.0 mm
10:22 13.4 °C 12.9 °C 1026.3 hPa Calm     97 % 0.0 mm
10:32 14.0 °C 13.2 °C 1026.3 hPa Calm     95 % 0.0 mm
10:37 13.9 °C 12.9 °C 1026.3 hPa Calm     94 % 0.0 mm
10:42 14.0 °C 12.9 °C 1026.3 hPa Calm     93 % 0.0 mm
10:52 14.3 °C 12.9 °C 1026.3 hPa Calm     91 % 0.0 mm
10:57 14.3 °C 12.7 °C 1026.3 hPa SSE 1.6 km/h 4.8 km/h 90 % 0.0 mm
11:02 14.4 °C 12.8 °C 1026.3 hPa Calm   4.8 km/h 90 % 0.0 mm
11:12 14.8 °C 12.8 °C 1026.3 hPa SSW 1.6 km/h 6.4 km/h 88 % 0.0 mm
11:17 15.0 °C 13.2 °C 1026.3 hPa Calm   4.8 km/h 89 % 0.0 mm
11:22 15.2 °C 13.0 °C 1026.3 hPa Calm   4.8 km/h 87 % 0.0 mm
11:32 15.5 °C 13.3 °C 1026.3 hPa Calm   3.2 km/h 87 % 0.0 mm
11:42 15.7 °C 13.2 °C 1026.3 hPa Calm   4.8 km/h 85 % 0.0 mm
11:52 16.2 °C 13.7 °C 1026.3 hPa Calm   3.2 km/h 85 % 0.0 mm
12:02 16.6 °C 13.9 °C 1026.3 hPa SSW 1.6 km/h 3.2 km/h 84 % 0.0 mm
12:07 16.7 °C 13.8 °C 1026.3 hPa South 3.2 km/h 4.8 km/h 83 % 0.0 mm
12:12 16.7 °C 13.8 °C 1026.3 hPa Calm   4.8 km/h 83 % 0.0 mm
12:17 16.7 °C 13.8 °C 1026.3 hPa South 1.6 km/h 6.4 km/h 83 % 0.0 mm
12:22 16.8 °C 13.9 °C 1026.3 hPa WSW 3.2 km/h 6.4 km/h 83 % 0.0 mm
12:27 17.1 °C 14.2 °C 1026.3 hPa SW 3.2 km/h 6.4 km/h 83 % 0.0 mm
12:32 17.3 °C 14.2 °C 1026.3 hPa SSW 1.6 km/h 6.4 km/h 82 % 0.0 mm
12:42 17.8 °C 14.5 °C 1026.3 hPa South 3.2 km/h 6.4 km/h 81 % 0.0 mm
12:47 18.2 °C 14.5 °C 1026.3 hPa SSW 4.8 km/h 6.4 km/h 79 % 0.0 mm
12:52 18.4 °C 14.5 °C 1026.0 hPa SSW 3.2 km/h 6.4 km/h 78 % 0.0 mm
13:02 18.9 °C 14.8 °C 1026.0 hPa SW 3.2 km/h 6.4 km/h 77 % 0.0 mm
13:12 19.3 °C 15.2 °C 1026.0 hPa SSW 1.6 km/h 6.4 km/h 77 % 0.0 mm
13:17 19.6 °C 15.3 °C 1026.0 hPa SSE 3.2 km/h 6.4 km/h 76 % 0.0 mm
13:22 19.7 °C 15.1 °C 1026.0 hPa SSW 8.0 km/h 8.0 km/h 75 % 0.0 mm
13:32 19.7 °C 15.1 °C 1026.0 hPa SSW 4.8 km/h 11.3 km/h 75 % 0.0 mm
13:42 19.8 °C 15.2 °C 1025.6 hPa Calm   11.3 km/h 75 % 0.0 mm
13:47 20.3 °C 15.1 °C 1025.6 hPa SSW 4.8 km/h 9.7 km/h 72 % 0.0 mm
13:52 20.2 °C 15.2 °C 1025.6 hPa SSE 3.2 km/h 9.7 km/h 73 % 0.0 mm
14:02 20.4 °C 15.0 °C 1025.3 hPa SW 3.2 km/h 9.7 km/h 71 % 0.0 mm
14:07 20.6 °C 15.2 °C 1025.6 hPa SSW 3.2 km/h 9.7 km/h 71 % 0.0 mm
14:12 20.6 °C 15.4 °C 1025.3 hPa SSW 6.4 km/h 9.7 km/h 72 % 0.0 mm
14:22 20.8 °C 15.6 °C 1025.3 hPa SW 4.8 km/h 11.3 km/h 72 % 0.0 mm
14:32 21.2 °C 15.9 °C 1025.3 hPa WSW 1.6 km/h 11.3 km/h 72 % 0.0 mm
14:42 21.6 °C 15.7 °C 1025.3 hPa SW 8.0 km/h 9.7 km/h 69 % 0.0 mm
14:47 21.6 °C 16.1 °C 1025.3 hPa SSW 3.2 km/h 9.7 km/h 71 % 0.0 mm
14:52 21.8 °C 15.6 °C 1025.3 hPa SW 9.7 km/h 9.7 km/h 68 % 0.0 mm
14:57 22.1 °C 15.7 °C 1024.9 hPa SW 4.8 km/h 11.3 km/h 67 % 0.0 mm
15:02 22.1 °C 15.9 °C 1024.9 hPa SSW 4.8 km/h 11.3 km/h 68 % 0.0 mm
15:07 22.4 °C 15.5 °C 1024.9 hPa SSW 6.4 km/h 11.3 km/h 65 % 0.0 mm
15:12 22.3 °C 15.4 °C 1025.3 hPa West 4.8 km/h 11.3 km/h 65 % 0.0 mm
15:17 22.4 °C 15.3 °C 1024.9 hPa SSW 4.8 km/h 9.7 km/h 64 % 0.0 mm
15:22 22.6 °C 15.4 °C 1024.9 hPa SW 6.4 km/h 9.7 km/h 64 % 0.0 mm
15:27 22.6 °C 15.2 °C 1024.9 hPa West 4.8 km/h 8.0 km/h 63 % 0.0 mm
15:32 22.7 °C 15.0 °C 1024.9 hPa SSW 1.6 km/h 8.0 km/h 62 % 0.0 mm
15:37 22.8 °C 15.1 °C 1024.9 hPa WSW 1.6 km/h 8.0 km/h 62 % 0.0 mm
15:42 22.9 °C 15.2 °C 1024.9 hPa West 4.8 km/h 8.0 km/h 62 % 0.0 mm
15:47 23.2 °C 15.3 °C 1024.9 hPa SW 4.8 km/h 8.0 km/h 61 % 0.0 mm
15:52 23.1 °C 14.9 °C 1024.9 hPa WSW 3.2 km/h 8.0 km/h 60 % 0.0 mm
16:02 23.2 °C 15.3 °C 1024.9 hPa WSW 4.8 km/h 8.0 km/h 61 % 0.0 mm
16:07 23.4 °C 15.4 °C 1024.9 hPa WSW 3.2 km/h 6.4 km/h 61 % 0.0 mm
16:12 23.6 °C 15.4 °C 1024.9 hPa SSE 3.2 km/h 6.4 km/h 60 % 0.0 mm
16:17 23.8 °C 15.8 °C 1024.9 hPa West 1.6 km/h 4.8 km/h 61 % 0.0 mm
16:22 23.8 °C 15.3 °C 1024.9 hPa SW 3.2 km/h 4.8 km/h 59 % 0.0 mm
16:32 23.9 °C 14.9 °C 1024.9 hPa WSW 1.6 km/h 4.8 km/h 57 % 0.0 mm
16:42 23.8 °C 14.8 °C 1024.9 hPa WSW 1.6 km/h 4.8 km/h 57 % 0.0 mm
16:47 23.9 °C 14.9 °C 1024.9 hPa SSW 3.2 km/h 6.4 km/h 57 % 0.0 mm
16:52 24.1 °C 14.8 °C 1024.9 hPa WSW 3.2 km/h 6.4 km/h 56 % 0.0 mm
16:57 24.0 °C 15.0 °C 1024.9 hPa WSW 6.4 km/h 6.4 km/h 57 % 0.0 mm
17:02 23.8 °C 15.0 °C 1024.9 hPa SW 1.6 km/h 4.8 km/h 58 % 0.0 mm
17:12 23.7 °C 14.9 °C 1024.9 hPa SW 3.2 km/h 9.7 km/h 58 % 0.0 mm
17:17 23.6 °C 15.1 °C 1024.9 hPa SSW 4.8 km/h 9.7 km/h 59 % 0.0 mm
17:27 23.2 °C 15.3 °C 1024.9 hPa SSW 4.8 km/h 11.3 km/h 61 % 0.0 mm
17:32 23.1 °C 15.2 °C 1024.9 hPa SW 4.8 km/h 11.3 km/h 61 % 0.0 mm
17:37 23.1 °C 15.7 °C 1024.9 hPa SW 4.8 km/h 11.3 km/h 63 % 0.0 mm
17:42 23.0 °C 15.1 °C 1024.9 hPa SSW 4.8 km/h 11.3 km/h 61 % 0.0 mm
17:47 22.8 °C 15.1 °C 1024.9 hPa SW 3.2 km/h 8.0 km/h 62 % 0.0 mm
17:52 22.8 °C 15.1 °C 1024.9 hPa SW 3.2 km/h 8.0 km/h 62 % 0.0 mm
18:02 22.7 °C 15.3 °C 1024.9 hPa SSW 1.6 km/h 8.0 km/h 63 % 0.0 mm
18:12 22.4 °C 15.0 °C 1024.9 hPa SSW 3.2 km/h 6.4 km/h 63 % 0.0 mm
18:17 22.2 °C 15.1 °C 1024.9 hPa SW 3.2 km/h 6.4 km/h 64 % 0.0 mm
18:22 22.0 °C 14.9 °C 1024.9 hPa WSW 1.6 km/h 6.4 km/h 64 % 0.0 mm
18:27 21.7 °C 14.8 °C 1024.9 hPa Calm   6.4 km/h 65 % 0.0 mm
18:32 21.3 °C 14.9 °C 1024.9 hPa Calm   4.8 km/h 67 % 0.0 mm
18:37 20.9 °C 15.2 °C 1024.9 hPa Calm   4.8 km/h 70 % 0.0 mm
18:47 20.0 °C 15.0 °C 1024.9 hPa WNW 1.6 km/h 3.2 km/h 73 % 0.0 mm
18:57 19.1 °C 15.0 °C 1024.9 hPa Calm   3.2 km/h 77 % 0.0 mm
19:02 18.9 °C 15.0 °C 1024.9 hPa WNW 1.6 km/h 3.2 km/h 78 % 0.0 mm
19:12 18.2 °C 14.7 °C 1025.3 hPa Calm   1.6 km/h 80 % 0.0 mm
19:17 18.1 °C 14.8 °C 1025.3 hPa WNW 1.6 km/h 1.6 km/h 81 % 0.0 mm
19:22 18.0 °C 14.5 °C 1025.3 hPa Calm   1.6 km/h 80 % 0.0 mm
19:27 17.8 °C 14.5 °C 1024.9 hPa WNW 1.6 km/h 1.6 km/h 81 % 0.0 mm
19:32 17.6 °C 14.5 °C 1025.3 hPa WNW 1.6 km/h 1.6 km/h 82 % 0.0 mm
19:37 17.4 °C 14.5 °C 1025.3 hPa Calm   1.6 km/h 83 % 0.0 mm
19:42 17.2 °C 14.5 °C 1025.3 hPa Calm   1.6 km/h 84 % 0.0 mm
19:52 16.8 °C 14.1 °C 1025.3 hPa Calm   1.6 km/h 84 % 0.0 mm
20:02 16.7 °C 14.2 °C 1025.6 hPa Calm   1.6 km/h 85 % 0.0 mm
20:12 16.3 °C 14.0 °C 1025.6 hPa Calm   1.6 km/h 86 % 0.0 mm
20:17 16.1 °C 13.9 °C 1025.6 hPa Calm   1.6 km/h 87 % 0.0 mm
20:22 15.9 °C 13.7 °C 1025.6 hPa Calm   1.6 km/h 87 % 0.0 mm
20:27 15.8 °C 13.8 °C 1025.6 hPa WNW 1.6 km/h 1.6 km/h 88 % 0.0 mm
20:32 15.8 °C 13.8 °C 1025.6 hPa Calm   1.6 km/h 88 % 0.0 mm
20:37 15.8 °C 13.8 °C 1025.6 hPa Calm   1.6 km/h 88 % 0.0 mm
20:42 16.1 °C 13.9 °C 1025.6 hPa Calm   1.6 km/h 87 % 0.0 mm
20:47 15.8 °C 13.6 °C 1026.0 hPa WNW 1.6 km/h 1.6 km/h 87 % 0.0 mm
20:52 15.7 °C 13.7 °C 1026.0 hPa WNW 1.6 km/h 1.6 km/h 88 % 0.0 mm
20:57 15.7 °C 13.7 °C 1025.6 hPa North 1.6 km/h 1.6 km/h 88 % 0.0 mm
21:02 15.6 °C 13.8 °C 1025.6 hPa Calm   1.6 km/h 89 % 0.0 mm
21:07 15.4 °C 13.6 °C 1025.6 hPa Calm   1.6 km/h 89 % 0.0 mm
21:12 15.3 °C 13.7 °C 1026.0 hPa Calm   1.6 km/h 90 % 0.0 mm
21:17 15.2 °C 13.4 °C 1026.0 hPa Calm   1.6 km/h 89 % 0.0 mm
21:22 15.1 °C 13.5 °C 1025.6 hPa Calm   1.6 km/h 90 % 0.0 mm
21:42 14.9 °C 13.3 °C 1025.6 hPa Calm     90 % 0.0 mm
21:47 14.9 °C 13.3 °C 1025.6 hPa Calm   1.6 km/h 90 % 0.0 mm
21:52 14.9 °C 13.4 °C 1026.0 hPa Calm   1.6 km/h 91 % 0.0 mm
21:57 14.8 °C 13.2 °C 1026.0 hPa North 1.6 km/h 1.6 km/h 90 % 0.0 mm
22:07 14.7 °C 13.2 °C 1026.0 hPa Calm   1.6 km/h 91 % 0.0 mm
22:17 14.7 °C 13.2 °C 1026.0 hPa Calm     91 % 0.0 mm
22:22 14.7 °C 13.2 °C 1026.0 hPa Calm     91 % 0.0 mm
22:32 14.7 °C 13.2 °C 1026.0 hPa North 1.6 km/h   91 % 0.0 mm
22:42 14.7 °C 13.1 °C 1026.3 hPa North 1.6 km/h 4.8 km/h 90 % 0.0 mm
22:52 14.8 °C 13.3 °C 1026.3 hPa North 3.2 km/h 4.8 km/h 91 % 0.0 mm
23:02 14.7 °C 12.9 °C 1026.3 hPa Calm   4.8 km/h 89 % 0.0 mm
23:12 14.2 °C 12.8 °C 1026.3 hPa Calm   4.8 km/h 91 % 0.0 mm
23:17 14.2 °C 12.9 °C 1026.3 hPa WNW 1.6 km/h 1.6 km/h 92 % 0.0 mm
23:22 14.3 °C 12.9 °C 1026.3 hPa Calm   1.6 km/h 91 % 0.0 mm
23:27 14.2 °C 12.9 °C 1026.3 hPa Calm   1.6 km/h 92 % 0.0 mm
23:32 14.1 °C 12.7 °C 1026.3 hPa Calm   1.6 km/h 91 % 0.0 mm
23:42 14.1 °C 12.8 °C 1026.6 hPa Calm     92 % 0.0 mm
23:47 14.2 °C 13.1 °C 1026.6 hPa Calm     93 % 0.0 mm
23:52 14.4 °C 13.1 °C 1026.6 hPa North 3.2 km/h   92 % 0.0 mm
23:57 14.4 °C 12.9 °C 1026.6 hPa NNW 3.2 km/h 6.4 km/h 91 % 0.0 mm
Meteo18
Compliments of Weather Underground - 4 mb

Script developed by  Jim McMurry - jmcmurry@mwt.net Adapted for the template by  Wim van der Kuil - Leuven-Template.eu

You find our weather info also at:

European Weather Network

Weather Underground

Equipment we use:

Weather-station
Davis Vue

Weather-program
Meteohub

Weather-server
Raspberry PI 2 B+

Provider
1 and 1

Davis Vue

Meteohub

Raspberry PI 2 B+

1 and 1